sensor_id;sensor_type;location;lat;lon;timestamp;temperature;humidity
12408;DHT22;6268;48.188;17.134;2023-07-31T00:02:22;21.00;99.90
12408;DHT22;6268;48.188;17.134;2023-07-31T00:04:51;21.10;99.90
12408;DHT22;6268;48.188;17.134;2023-07-31T00:07:19;21.10;99.90
12408;DHT22;6268;48.188;17.134;2023-07-31T00:09:48;21.00;99.90
12408;DHT22;6268;48.188;17.134;2023-07-31T00:12:17;21.00;99.90
12408;DHT22;6268;48.188;17.134;2023-07-31T00:14:45;20.90;99.90
12408;DHT22;6268;48.188;17.134;2023-07-31T00:17:17;20.90;99.90
12408;DHT22;6268;48.188;17.134;2023-07-31T00:19:46;20.90;99.90
12408;DHT22;6268;48.188;17.134;2023-07-31T00:22:17;20.70;99.90
12408;DHT22;6268;48.188;17.134;2023-07-31T00:24:46;20.50;99.90
12408;DHT22;6268;48.188;17.134;2023-07-31T00:27:14;20.60;99.90
12408;DHT22;6268;48.188;17.134;2023-07-31T00:29:43;20.50;99.90
12408;DHT22;6268;48.188;17.134;2023-07-31T00:32:12;20.40;99.90
12408;DHT22;6268;48.188;17.134;2023-07-31T00:34:42;20.40;99.90
12408;DHT22;6268;48.188;17.134;2023-07-31T00:37:10;20.30;99.90
12408;DHT22;6268;48.188;17.134;2023-07-31T00:39:39;20.20;99.90
12408;DHT22;6268;48.188;17.134;2023-07-31T00:42:08;20.30;99.90
12408;DHT22;6268;48.188;17.134;2023-07-31T00:44:37;20.40;99.90
12408;DHT22;6268;48.188;17.134;2023-07-31T00:47:06;20.30;99.90
12408;DHT22;6268;48.188;17.134;2023-07-31T00:49:35;20.30;99.90
12408;DHT22;6268;48.188;17.134;2023-07-31T00:52:06;20.30;99.90
12408;DHT22;6268;48.188;17.134;2023-07-31T00:54:35;20.40;99.90
12408;DHT22;6268;48.188;17.134;2023-07-31T00:57:05;20.30;99.90
12408;DHT22;6268;48.188;17.134;2023-07-31T00:59:35;20.30;99.90
12408;DHT22;6268;48.188;17.134;2023-07-31T01:02:04;20.30;99.90
12408;DHT22;6268;48.188;17.134;2023-07-31T01:04:34;20.00;99.90
12408;DHT22;6268;48.188;17.134;2023-07-31T01:07:10;20.00;99.90
12408;DHT22;6268;48.188;17.134;2023-07-31T01:09:49;20.10;99.90
12408;DHT22;6268;48.188;17.134;2023-07-31T01:12:27;20.00;99.90
12408;DHT22;6268;48.188;17.134;2023-07-31T01:15:05;20.00;99.90
12408;DHT22;6268;48.188;17.134;2023-07-31T01:17:38;19.90;99.90
12408;DHT22;6268;48.188;17.134;2023-07-31T01:20:10;20.00;99.90
12408;DHT22;6268;48.188;17.134;2023-07-31T01:23:19;19.90;99.90
12408;DHT22;6268;48.188;17.134;2023-07-31T01:26:10;19.90;99.90
12408;DHT22;6268;48.188;17.134;2023-07-31T01:28:46;20.10;99.90
12408;DHT22;6268;48.188;17.134;2023-07-31T01:31:24;20.10;99.90
12408;DHT22;6268;48.188;17.134;2023-07-31T01:33:57;19.90;99.90
12408;DHT22;6268;48.188;17.134;2023-07-31T01:36:29;19.80;99.90
12408;DHT22;6268;48.188;17.134;2023-07-31T01:38:59;19.70;99.90
12408;DHT22;6268;48.188;17.134;2023-07-31T01:41:29;19.70;99.90
12408;DHT22;6268;48.188;17.134;2023-07-31T01:43:58;19.70;99.90
12408;DHT22;6268;48.188;17.134;2023-07-31T01:46:27;19.60;99.90
12408;DHT22;6268;48.188;17.134;2023-07-31T01:48:55;19.60;99.90
12408;DHT22;6268;48.188;17.134;2023-07-31T01:51:24;19.50;99.90
12408;DHT22;6268;48.188;17.134;2023-07-31T01:53:53;19.60;99.90
12408;DHT22;6268;48.188;17.134;2023-07-31T01:56:21;19.60;99.90
12408;DHT22;6268;48.188;17.134;2023-07-31T01:58:51;19.60;99.90
12408;DHT22;6268;48.188;17.134;2023-07-31T02:01:20;19.70;99.90
12408;DHT22;6268;48.188;17.134;2023-07-31T02:03:49;19.70;99.90
12408;DHT22;6268;48.188;17.134;2023-07-31T02:06:18;19.60;99.90
12408;DHT22;6268;48.188;17.134;2023-07-31T02:08:46;19.60;99.90
12408;DHT22;6268;48.188;17.134;2023-07-31T02:11:15;19.60;99.90
12408;DHT22;6268;48.188;17.134;2023-07-31T02:13:44;19.60;99.90
12408;DHT22;6268;48.188;17.134;2023-07-31T02:16:14;19.60;99.90
12408;DHT22;6268;48.188;17.134;2023-07-31T02:18:42;19.60;99.90
12408;DHT22;6268;48.188;17.134;2023-07-31T02:21:11;19.60;99.90
12408;DHT22;6268;48.188;17.134;2023-07-31T02:23:40;19.70;99.90
12408;DHT22;6268;48.188;17.134;2023-07-31T02:26:09;19.70;99.90
12408;DHT22;6268;48.188;17.134;2023-07-31T02:28:37;19.60;99.90
12408;DHT22;6268;48.188;17.134;2023-07-31T02:31:06;19.60;99.90
12408;DHT22;6268;48.188;17.134;2023-07-31T02:33:36;19.50;99.90
12408;DHT22;6268;48.188;17.134;2023-07-31T02:36:05;19.40;99.90
12408;DHT22;6268;48.188;17.134;2023-07-31T02:38:33;19.40;99.90
12408;DHT22;6268;48.188;17.134;2023-07-31T02:41:02;19.20;99.90
12408;DHT22;6268;48.188;17.134;2023-07-31T02:43:31;19.20;99.90
12408;DHT22;6268;48.188;17.134;2023-07-31T02:45:59;19.20;99.90
12408;DHT22;6268;48.188;17.134;2023-07-31T02:48:28;19.10;99.90
12408;DHT22;6268;48.188;17.134;2023-07-31T02:50:58;19.10;99.90
12408;DHT22;6268;48.188;17.134;2023-07-31T02:53:27;19.10;99.90
12408;DHT22;6268;48.188;17.134;2023-07-31T02:55:56;19.10;99.90
12408;DHT22;6268;48.188;17.134;2023-07-31T02:58:24;19.10;99.90
12408;DHT22;6268;48.188;17.134;2023-07-31T03:00:53;19.10;99.90
12408;DHT22;6268;48.188;17.134;2023-07-31T03:03:22;19.00;99.90
12408;DHT22;6268;48.188;17.134;2023-07-31T03:05:51;18.90;99.90
12408;DHT22;6268;48.188;17.134;2023-07-31T03:08:21;18.90;99.90
12408;DHT22;6268;48.188;17.134;2023-07-31T03:10:50;19.00;99.90
12408;DHT22;6268;48.188;17.134;2023-07-31T03:13:19;19.10;99.90
12408;DHT22;6268;48.188;17.134;2023-07-31T03:15:48;19.10;99.90
12408;DHT22;6268;48.188;17.134;2023-07-31T03:18:17;19.00;99.90
12408;DHT22;6268;48.188;17.134;2023-07-31T03:20:45;18.90;99.90
12408;DHT22;6268;48.188;17.134;2023-07-31T03:23:14;18.80;99.90
12408;DHT22;6268;48.188;17.134;2023-07-31T03:25:57;18.80;99.90
12408;DHT22;6268;48.188;17.134;2023-07-31T03:28:26;18.80;99.90
12408;DHT22;6268;48.188;17.134;2023-07-31T03:30:55;18.80;99.90
12408;DHT22;6268;48.188;17.134;2023-07-31T03:33:25;18.70;99.90
12408;DHT22;6268;48.188;17.134;2023-07-31T03:35:54;18.80;99.90
12408;DHT22;6268;48.188;17.134;2023-07-31T03:38:22;18.80;99.90
12408;DHT22;6268;48.188;17.134;2023-07-31T03:40:51;18.90;99.90
12408;DHT22;6268;48.188;17.134;2023-07-31T03:43:21;18.90;99.90
12408;DHT22;6268;48.188;17.134;2023-07-31T03:45:50;18.90;99.90
12408;DHT22;6268;48.188;17.134;2023-07-31T03:48:20;18.90;99.90
12408;DHT22;6268;48.188;17.134;2023-07-31T03:50:48;18.90;99.90
12408;DHT22;6268;48.188;17.134;2023-07-31T03:53:17;19.00;99.90
12408;DHT22;6268;48.188;17.134;2023-07-31T03:55:46;19.10;99.90
12408;DHT22;6268;48.188;17.134;2023-07-31T03:58:15;19.20;99.90
12408;DHT22;6268;48.188;17.134;2023-07-31T04:00:45;19.10;99.90
12408;DHT22;6268;48.188;17.134;2023-07-31T04:03:15;19.10;99.90
12408;DHT22;6268;48.188;17.134;2023-07-31T04:05:44;19.00;99.90
12408;DHT22;6268;48.188;17.134;2023-07-31T04:08:13;19.00;99.90
12408;DHT22;6268;48.188;17.134;2023-07-31T04:10:41;19.20;99.90
12408;DHT22;6268;48.188;17.134;2023-07-31T04:13:10;19.30;99.90
12408;DHT22;6268;48.188;17.134;2023-07-31T04:15:39;19.60;99.90
12408;DHT22;6268;48.188;17.134;2023-07-31T04:18:09;19.80;99.90
12408;DHT22;6268;48.188;17.134;2023-07-31T04:20:38;20.10;99.90
12408;DHT22;6268;48.188;17.134;2023-07-31T04:23:07;20.40;99.90
12408;DHT22;6268;48.188;17.134;2023-07-31T04:25:36;20.60;99.90
12408;DHT22;6268;48.188;17.134;2023-07-31T04:28:05;20.80;99.90
12408;DHT22;6268;48.188;17.134;2023-07-31T04:30:34;21.00;99.90
12408;DHT22;6268;48.188;17.134;2023-07-31T04:33:03;21.10;99.90
12408;DHT22;6268;48.188;17.134;2023-07-31T04:35:33;21.60;99.90
12408;DHT22;6268;48.188;17.134;2023-07-31T04:38:02;21.80;99.90
12408;DHT22;6268;48.188;17.134;2023-07-31T04:40:31;21.90;99.90
12408;DHT22;6268;48.188;17.134;2023-07-31T04:42:59;21.90;99.90
12408;DHT22;6268;48.188;17.134;2023-07-31T04:45:28;21.90;99.90
12408;DHT22;6268;48.188;17.134;2023-07-31T04:47:57;22.00;99.90
12408;DHT22;6268;48.188;17.134;2023-07-31T04:50:26;22.10;99.90
12408;DHT22;6268;48.188;17.134;2023-07-31T04:52:56;22.10;99.90
12408;DHT22;6268;48.188;17.134;2023-07-31T04:55:25;22.10;99.90
12408;DHT22;6268;48.188;17.134;2023-07-31T04:57:54;22.10;99.90
12408;DHT22;6268;48.188;17.134;2023-07-31T05:00:22;22.10;99.90
12408;DHT22;6268;48.188;17.134;2023-07-31T05:02:51;22.30;99.90
12408;DHT22;6268;48.188;17.134;2023-07-31T05:05:21;22.60;99.90
12408;DHT22;6268;48.188;17.134;2023-07-31T05:07:50;22.90;99.90
12408;DHT22;6268;48.188;17.134;2023-07-31T05:10:20;23.20;99.90
12408;DHT22;6268;48.188;17.134;2023-07-31T05:12:49;23.50;99.90
12408;DHT22;6268;48.188;17.134;2023-07-31T05:15:18;24.10;99.90
12408;DHT22;6268;48.188;17.134;2023-07-31T05:17:47;24.10;99.90
12408;DHT22;6268;48.188;17.134;2023-07-31T05:20:18;24.50;99.90
12408;DHT22;6268;48.188;17.134;2023-07-31T05:22:46;25.40;99.90
12408;DHT22;6268;48.188;17.134;2023-07-31T05:25:15;26.10;99.90
12408;DHT22;6268;48.188;17.134;2023-07-31T05:27:45;26.80;97.20
12408;DHT22;6268;48.188;17.134;2023-07-31T05:30:14;27.30;93.80
12408;DHT22;6268;48.188;17.134;2023-07-31T05:32:43;27.30;92.50
12408;DHT22;6268;48.188;17.134;2023-07-31T05:35:12;27.50;92.10
12408;DHT22;6268;48.188;17.134;2023-07-31T05:37:40;27.90;90.70
12408;DHT22;6268;48.188;17.134;2023-07-31T05:40:09;28.30;88.30
12408;DHT22;6268;48.188;17.134;2023-07-31T05:42:38;28.40;86.80
12408;DHT22;6268;48.188;17.134;2023-07-31T05:45:09;28.50;84.80
12408;DHT22;6268;48.188;17.134;2023-07-31T05:47:39;28.70;83.50
12408;DHT22;6268;48.188;17.134;2023-07-31T05:50:09;29.10;81.20
12408;DHT22;6268;48.188;17.134;2023-07-31T05:52:37;29.30;78.40
12408;DHT22;6268;48.188;17.134;2023-07-31T05:55:07;28.90;78.90
12408;DHT22;6268;48.188;17.134;2023-07-31T05:57:36;29.20;76.90
12408;DHT22;6268;48.188;17.134;2023-07-31T06:00:06;29.10;77.40
12408;DHT22;6268;48.188;17.134;2023-07-31T06:02:37;29.50;75.60
12408;DHT22;6268;48.188;17.134;2023-07-31T06:05:06;29.90;73.20
12408;DHT22;6268;48.188;17.134;2023-07-31T06:07:36;29.80;71.70
12408;DHT22;6268;48.188;17.134;2023-07-31T06:10:05;30.10;69.60
12408;DHT22;6268;48.188;17.134;2023-07-31T06:12:35;30.10;68.80
12408;DHT22;6268;48.188;17.134;2023-07-31T06:15:05;29.70;68.30
12408;DHT22;6268;48.188;17.134;2023-07-31T06:17:34;29.70;69.20
12408;DHT22;6268;48.188;17.134;2023-07-31T06:20:06;30.10;67.60
12408;DHT22;6268;48.188;17.134;2023-07-31T06:22:37;30.40;68.90
12408;DHT22;6268;48.188;17.134;2023-07-31T06:25:06;30.40;67.00
12408;DHT22;6268;48.188;17.134;2023-07-31T06:27:37;30.00;68.10
12408;DHT22;6268;48.188;17.134;2023-07-31T06:30:07;30.50;66.80
12408;DHT22;6268;48.188;17.134;2023-07-31T06:32:36;30.60;67.30
12408;DHT22;6268;48.188;17.134;2023-07-31T06:35:07;30.10;67.40
12408;DHT22;6268;48.188;17.134;2023-07-31T06:37:35;30.70;65.30
12408;DHT22;6268;48.188;17.134;2023-07-31T06:40:08;30.60;65.80
12408;DHT22;6268;48.188;17.134;2023-07-31T06:42:37;31.00;65.60
12408;DHT22;6268;48.188;17.134;2023-07-31T06:45:07;31.00;65.20
12408;DHT22;6268;48.188;17.134;2023-07-31T06:47:37;31.30;63.60
12408;DHT22;6268;48.188;17.134;2023-07-31T06:50:08;31.60;60.90
12408;DHT22;6268;48.188;17.134;2023-07-31T06:52:37;31.20;60.40
12408;DHT22;6268;48.188;17.134;2023-07-31T06:55:16;31.00;61.30
12408;DHT22;6268;48.188;17.134;2023-07-31T06:57:47;30.90;61.60
12408;DHT22;6268;48.188;17.134;2023-07-31T07:00:17;30.40;59.90
12408;DHT22;6268;48.188;17.134;2023-07-31T07:02:46;29.70;60.70
12408;DHT22;6268;48.188;17.134;2023-07-31T07:05:18;29.30;61.90
12408;DHT22;6268;48.188;17.134;2023-07-31T07:07:49;29.40;62.30
12408;DHT22;6268;48.188;17.134;2023-07-31T07:10:19;29.70;62.00
12408;DHT22;6268;48.188;17.134;2023-07-31T07:12:48;30.20;61.20
12408;DHT22;6268;48.188;17.134;2023-07-31T07:15:17;31.20;60.10
12408;DHT22;6268;48.188;17.134;2023-07-31T07:17:45;31.80;58.70
12408;DHT22;6268;48.188;17.134;2023-07-31T07:20:15;31.70;57.90
12408;DHT22;6268;48.188;17.134;2023-07-31T07:22:45;31.90;57.60
12408;DHT22;6268;48.188;17.134;2023-07-31T07:25:14;31.70;57.10
12408;DHT22;6268;48.188;17.134;2023-07-31T07:27:42;31.80;57.50
12408;DHT22;6268;48.188;17.134;2023-07-31T07:30:11;32.20;57.50
12408;DHT22;6268;48.188;17.134;2023-07-31T07:32:41;32.60;57.60
12408;DHT22;6268;48.188;17.134;2023-07-31T07:35:10;32.40;56.60
12408;DHT22;6268;48.188;17.134;2023-07-31T07:37:38;32.30;57.10
12408;DHT22;6268;48.188;17.134;2023-07-31T07:40:09;32.60;56.40
12408;DHT22;6268;48.188;17.134;2023-07-31T07:42:38;33.00;55.60
12408;DHT22;6268;48.188;17.134;2023-07-31T07:45:08;32.40;56.20
12408;DHT22;6268;48.188;17.134;2023-07-31T07:47:38;32.10;56.60
12408;DHT22;6268;48.188;17.134;2023-07-31T07:50:08;32.70;56.00
12408;DHT22;6268;48.188;17.134;2023-07-31T07:52:37;32.40;56.20
12408;DHT22;6268;48.188;17.134;2023-07-31T07:55:06;32.10;55.60
12408;DHT22;6268;48.188;17.134;2023-07-31T07:57:37;32.20;55.80
12408;DHT22;6268;48.188;17.134;2023-07-31T08:00:07;32.50;55.20
12408;DHT22;6268;48.188;17.134;2023-07-31T08:02:37;32.60;54.50
12408;DHT22;6268;48.188;17.134;2023-07-31T08:05:07;32.50;54.70
12408;DHT22;6268;48.188;17.134;2023-07-31T08:07:36;32.50;55.40
12408;DHT22;6268;48.188;17.134;2023-07-31T08:10:06;33.10;55.00
12408;DHT22;6268;48.188;17.134;2023-07-31T08:12:36;33.60;54.00
12408;DHT22;6268;48.188;17.134;2023-07-31T08:15:06;33.50;52.10
12408;DHT22;6268;48.188;17.134;2023-07-31T08:17:35;33.70;51.00
12408;DHT22;6268;48.188;17.134;2023-07-31T08:20:06;33.80;50.50
12408;DHT22;6268;48.188;17.134;2023-07-31T08:22:35;33.50;50.20
12408;DHT22;6268;48.188;17.134;2023-07-31T08:25:05;33.90;50.10
12408;DHT22;6268;48.188;17.134;2023-07-31T08:27:34;34.40;48.70
12408;DHT22;6268;48.188;17.134;2023-07-31T08:30:06;34.80;47.40
12408;DHT22;6268;48.188;17.134;2023-07-31T08:32:35;34.70;47.30
12408;DHT22;6268;48.188;17.134;2023-07-31T08:35:04;34.90;47.00
12408;DHT22;6268;48.188;17.134;2023-07-31T08:37:33;34.50;47.10
12408;DHT22;6268;48.188;17.134;2023-07-31T08:40:02;33.60;47.90
12408;DHT22;6268;48.188;17.134;2023-07-31T08:42:31;33.20;47.00
12408;DHT22;6268;48.188;17.134;2023-07-31T08:45:02;32.90;47.40
12408;DHT22;6268;48.188;17.134;2023-07-31T08:47:33;32.30;48.90
12408;DHT22;6268;48.188;17.134;2023-07-31T08:50:02;32.90;48.80
12408;DHT22;6268;48.188;17.134;2023-07-31T08:52:32;33.30;48.20
12408;DHT22;6268;48.188;17.134;2023-07-31T08:55:01;33.80;47.40
12408;DHT22;6268;48.188;17.134;2023-07-31T08:57:30;33.80;46.20
12408;DHT22;6268;48.188;17.134;2023-07-31T09:00:02;34.10;46.60
12408;DHT22;6268;48.188;17.134;2023-07-31T09:02:37;33.80;46.50
12408;DHT22;6268;48.188;17.134;2023-07-31T09:05:09;33.50;46.60
12408;DHT22;6268;48.188;17.134;2023-07-31T09:07:39;33.90;46.40
12408;DHT22;6268;48.188;17.134;2023-07-31T09:10:13;33.80;46.70
12408;DHT22;6268;48.188;17.134;2023-07-31T09:12:42;34.30;46.50
12408;DHT22;6268;48.188;17.134;2023-07-31T09:15:14;34.40;45.20
12408;DHT22;6268;48.188;17.134;2023-07-31T09:18:01;34.10;45.70
12408;DHT22;6268;48.188;17.134;2023-07-31T09:20:31;33.60;46.30
12408;DHT22;6268;48.188;17.134;2023-07-31T09:23:08;34.00;45.90
12408;DHT22;6268;48.188;17.134;2023-07-31T09:25:39;33.50;45.30
12408;DHT22;6268;48.188;17.134;2023-07-31T09:28:11;33.50;45.60
12408;DHT22;6268;48.188;17.134;2023-07-31T09:30:49;34.10;44.90
12408;DHT22;6268;48.188;17.134;2023-07-31T09:33:19;34.60;44.70
12408;DHT22;6268;48.188;17.134;2023-07-31T09:35:48;34.60;44.70
12408;DHT22;6268;48.188;17.134;2023-07-31T09:38:16;34.50;45.20
12408;DHT22;6268;48.188;17.134;2023-07-31T09:40:46;34.50;44.70
12408;DHT22;6268;48.188;17.134;2023-07-31T09:43:18;33.90;45.30
12408;DHT22;6268;48.188;17.134;2023-07-31T09:45:54;34.10;45.30
12408;DHT22;6268;48.188;17.134;2023-07-31T09:48:25;33.80;44.70
12408;DHT22;6268;48.188;17.134;2023-07-31T09:50:54;33.20;43.20
12408;DHT22;6268;48.188;17.134;2023-07-31T09:53:28;33.10;44.60
12408;DHT22;6268;48.188;17.134;2023-07-31T09:55:58;33.20;44.50
12408;DHT22;6268;48.188;17.134;2023-07-31T09:58:29;33.80;44.10
12408;DHT22;6268;48.188;17.134;2023-07-31T10:00:59;33.40;44.10
12408;DHT22;6268;48.188;17.134;2023-07-31T10:03:32;33.20;44.20
12408;DHT22;6268;48.188;17.134;2023-07-31T10:06:02;33.20;44.50
12408;DHT22;6268;48.188;17.134;2023-07-31T10:08:32;33.10;44.90
12408;DHT22;6268;48.188;17.134;2023-07-31T10:11:04;33.60;44.70
12408;DHT22;6268;48.188;17.134;2023-07-31T10:13:35;34.30;43.20
12408;DHT22;6268;48.188;17.134;2023-07-31T10:16:07;34.30;41.60
12408;DHT22;6268;48.188;17.134;2023-07-31T10:18:36;34.10;42.10
12408;DHT22;6268;48.188;17.134;2023-07-31T10:21:06;33.70;43.30
12408;DHT22;6268;48.188;17.134;2023-07-31T10:23:36;33.90;43.20
12408;DHT22;6268;48.188;17.134;2023-07-31T10:26:07;33.20;42.60
12408;DHT22;6268;48.188;17.134;2023-07-31T10:28:37;32.70;42.90
12408;DHT22;6268;48.188;17.134;2023-07-31T10:31:09;33.10;42.90
12408;DHT22;6268;48.188;17.134;2023-07-31T10:33:38;33.40;42.70
12408;DHT22;6268;48.188;17.134;2023-07-31T10:36:16;33.80;42.80
12408;DHT22;6268;48.188;17.134;2023-07-31T10:38:46;33.70;42.20
12408;DHT22;6268;48.188;17.134;2023-07-31T10:41:17;33.40;42.80
12408;DHT22;6268;48.188;17.134;2023-07-31T10:43:46;33.70;42.80
12408;DHT22;6268;48.188;17.134;2023-07-31T10:46:16;34.10;42.30
12408;DHT22;6268;48.188;17.134;2023-07-31T10:48:45;34.00;42.60
12408;DHT22;6268;48.188;17.134;2023-07-31T10:51:32;33.40;42.10
12408;DHT22;6268;48.188;17.134;2023-07-31T10:54:12;33.20;42.60
12408;DHT22;6268;48.188;17.134;2023-07-31T10:56:44;32.70;43.20
12408;DHT22;6268;48.188;17.134;2023-07-31T10:59:14;31.90;43.20
12408;DHT22;6268;48.188;17.134;2023-07-31T11:01:51;32.00;44.30
12408;DHT22;6268;48.188;17.134;2023-07-31T11:04:24;32.30;43.20
12408;DHT22;6268;48.188;17.134;2023-07-31T11:06:57;32.20;43.70
12408;DHT22;6268;48.188;17.134;2023-07-31T11:09:31;32.20;43.90
12408;DHT22;6268;48.188;17.134;2023-07-31T11:12:01;32.30;43.90
12408;DHT22;6268;48.188;17.134;2023-07-31T11:14:29;32.00;44.20
12408;DHT22;6268;48.188;17.134;2023-07-31T11:16:59;31.70;44.80
12408;DHT22;6268;48.188;17.134;2023-07-31T11:19:28;31.70;44.70
12408;DHT22;6268;48.188;17.134;2023-07-31T11:21:56;31.50;44.40
12408;DHT22;6268;48.188;17.134;2023-07-31T11:24:25;31.70;44.70
12408;DHT22;6268;48.188;17.134;2023-07-31T11:26:55;31.70;43.70
12408;DHT22;6268;48.188;17.134;2023-07-31T11:29:27;31.60;43.20
12408;DHT22;6268;48.188;17.134;2023-07-31T11:31:56;31.60;43.70
12408;DHT22;6268;48.188;17.134;2023-07-31T11:34:26;31.10;44.30
12408;DHT22;6268;48.188;17.134;2023-07-31T11:36:55;31.00;45.40
12408;DHT22;6268;48.188;17.134;2023-07-31T11:39:24;31.10;44.60
12408;DHT22;6268;48.188;17.134;2023-07-31T11:41:58;31.10;44.90
12408;DHT22;6268;48.188;17.134;2023-07-31T11:44:38;30.80;45.10
12408;DHT22;6268;48.188;17.134;2023-07-31T11:47:08;31.20;45.50
12408;DHT22;6268;48.188;17.134;2023-07-31T11:49:39;31.30;46.20
12408;DHT22;6268;48.188;17.134;2023-07-31T11:52:08;31.40;46.10
12408;DHT22;6268;48.188;17.134;2023-07-31T11:54:37;31.40;46.40
12408;DHT22;6268;48.188;17.134;2023-07-31T11:57:08;31.20;45.80
12408;DHT22;6268;48.188;17.134;2023-07-31T11:59:37;30.80;46.50
12408;DHT22;6268;48.188;17.134;2023-07-31T12:02:07;30.80;46.80
12408;DHT22;6268;48.188;17.134;2023-07-31T12:04:37;30.80;47.00
12408;DHT22;6268;48.188;17.134;2023-07-31T12:07:06;30.80;47.30
12408;DHT22;6268;48.188;17.134;2023-07-31T12:09:35;30.50;47.50
12408;DHT22;6268;48.188;17.134;2023-07-31T12:12:08;30.10;47.90
12408;DHT22;6268;48.188;17.134;2023-07-31T12:14:41;29.70;48.90
12408;DHT22;6268;48.188;17.134;2023-07-31T12:17:10;30.10;49.00
12408;DHT22;6268;48.188;17.134;2023-07-31T12:19:40;30.50;48.40
12408;DHT22;6268;48.188;17.134;2023-07-31T12:22:12;30.50;48.10
12408;DHT22;6268;48.188;17.134;2023-07-31T12:24:42;30.30;48.90
12408;DHT22;6268;48.188;17.134;2023-07-31T12:27:13;30.50;48.10
12408;DHT22;6268;48.188;17.134;2023-07-31T12:29:45;30.40;48.00
12408;DHT22;6268;48.188;17.134;2023-07-31T12:32:20;30.40;48.60
12408;DHT22;6268;48.188;17.134;2023-07-31T12:34:51;30.30;48.40
12408;DHT22;6268;48.188;17.134;2023-07-31T12:37:20;30.30;47.20
12408;DHT22;6268;48.188;17.134;2023-07-31T12:39:49;30.30;47.30
12408;DHT22;6268;48.188;17.134;2023-07-31T12:42:18;30.40;47.50
12408;DHT22;6268;48.188;17.134;2023-07-31T12:44:47;30.40;47.10
12408;DHT22;6268;48.188;17.134;2023-07-31T12:47:15;30.20;47.50
12408;DHT22;6268;48.188;17.134;2023-07-31T12:49:44;30.30;47.50
12408;DHT22;6268;48.188;17.134;2023-07-31T12:52:14;30.30;47.00
12408;DHT22;6268;48.188;17.134;2023-07-31T12:54:43;30.30;47.30
12408;DHT22;6268;48.188;17.134;2023-07-31T12:57:11;30.30;47.40
12408;DHT22;6268;48.188;17.134;2023-07-31T12:59:40;30.40;48.80
12408;DHT22;6268;48.188;17.134;2023-07-31T13:02:09;30.40;50.40
12408;DHT22;6268;48.188;17.134;2023-07-31T13:04:38;30.10;48.60
12408;DHT22;6268;48.188;17.134;2023-07-31T13:07:06;30.00;48.70
12408;DHT22;6268;48.188;17.134;2023-07-31T13:09:36;30.30;48.00
12408;DHT22;6268;48.188;17.134;2023-07-31T13:12:06;30.10;47.60
12408;DHT22;6268;48.188;17.134;2023-07-31T13:14:35;30.00;48.20
12408;DHT22;6268;48.188;17.134;2023-07-31T13:17:04;29.70;49.00
12408;DHT22;6268;48.188;17.134;2023-07-31T13:19:33;29.90;48.80
12408;DHT22;6268;48.188;17.134;2023-07-31T13:22:01;30.10;48.70
12408;DHT22;6268;48.188;17.134;2023-07-31T13:24:31;30.00;48.50
12408;DHT22;6268;48.188;17.134;2023-07-31T13:27:01;30.00;48.30
12408;DHT22;6268;48.188;17.134;2023-07-31T13:29:30;29.90;49.20
12408;DHT22;6268;48.188;17.134;2023-07-31T13:31:59;29.70;48.90
12408;DHT22;6268;48.188;17.134;2023-07-31T13:34:27;29.90;48.30
12408;DHT22;6268;48.188;17.134;2023-07-31T13:36:56;30.00;48.70
12408;DHT22;6268;48.188;17.134;2023-07-31T13:39:25;30.00;53.10
12408;DHT22;6268;48.188;17.134;2023-07-31T13:41:53;30.00;48.80
12408;DHT22;6268;48.188;17.134;2023-07-31T13:44:23;29.80;49.00
12408;DHT22;6268;48.188;17.134;2023-07-31T13:46:52;29.70;49.00
12408;DHT22;6268;48.188;17.134;2023-07-31T13:49:22;29.70;49.40
12408;DHT22;6268;48.188;17.134;2023-07-31T13:51:51;29.80;49.20
12408;DHT22;6268;48.188;17.134;2023-07-31T13:54:20;29.60;49.10
12408;DHT22;6268;48.188;17.134;2023-07-31T13:56:48;29.50;49.20
12408;DHT22;6268;48.188;17.134;2023-07-31T13:59:17;29.50;50.50
12408;DHT22;6268;48.188;17.134;2023-07-31T14:01:47;29.30;51.60
12408;DHT22;6268;48.188;17.134;2023-07-31T14:04:16;29.40;50.30
12408;DHT22;6268;48.188;17.134;2023-07-31T14:06:46;29.30;49.80
12408;DHT22;6268;48.188;17.134;2023-07-31T14:09:17;29.30;49.60
12408;DHT22;6268;48.188;17.134;2023-07-31T14:11:46;29.40;49.50
12408;DHT22;6268;48.188;17.134;2023-07-31T14:14:15;29.50;49.70
12408;DHT22;6268;48.188;17.134;2023-07-31T14:16:46;29.40;49.80
12408;DHT22;6268;48.188;17.134;2023-07-31T14:19:15;29.50;49.90
12408;DHT22;6268;48.188;17.134;2023-07-31T14:21:44;29.50;49.80
12408;DHT22;6268;48.188;17.134;2023-07-31T14:24:31;29.40;49.80
12408;DHT22;6268;48.188;17.134;2023-07-31T14:27:00;29.40;49.80
12408;DHT22;6268;48.188;17.134;2023-07-31T14:29:30;29.30;49.70
12408;DHT22;6268;48.188;17.134;2023-07-31T14:32:00;29.20;49.80
12408;DHT22;6268;48.188;17.134;2023-07-31T14:34:28;29.30;49.90
12408;DHT22;6268;48.188;17.134;2023-07-31T14:36:57;29.30;49.90
12408;DHT22;6268;48.188;17.134;2023-07-31T14:39:26;29.40;49.60
12408;DHT22;6268;48.188;17.134;2023-07-31T14:41:55;29.40;50.10
12408;DHT22;6268;48.188;17.134;2023-07-31T14:44:23;29.40;50.10
12408;DHT22;6268;48.188;17.134;2023-07-31T14:46:52;29.30;49.30
12408;DHT22;6268;48.188;17.134;2023-07-31T14:49:23;29.30;49.40
12408;DHT22;6268;48.188;17.134;2023-07-31T14:51:51;29.10;49.90
12408;DHT22;6268;48.188;17.134;2023-07-31T14:54:20;29.10;49.90
12408;DHT22;6268;48.188;17.134;2023-07-31T14:56:49;29.10;49.70
12408;DHT22;6268;48.188;17.134;2023-07-31T14:59:17;29.20;49.20
12408;DHT22;6268;48.188;17.134;2023-07-31T15:01:46;29.20;50.40
12408;DHT22;6268;48.188;17.134;2023-07-31T15:04:15;29.10;50.80
12408;DHT22;6268;48.188;17.134;2023-07-31T15:06:45;29.20;53.00
12408;DHT22;6268;48.188;17.134;2023-07-31T15:09:14;29.00;51.60
12408;DHT22;6268;48.188;17.134;2023-07-31T15:11:42;29.00;52.40
12408;DHT22;6268;48.188;17.134;2023-07-31T15:14:11;28.90;50.90
12408;DHT22;6268;48.188;17.134;2023-07-31T15:16:43;29.10;50.90
12408;DHT22;6268;48.188;17.134;2023-07-31T15:19:12;29.10;51.90
12408;DHT22;6268;48.188;17.134;2023-07-31T15:21:40;29.00;52.80
12408;DHT22;6268;48.188;17.134;2023-07-31T15:24:11;29.20;52.60
12408;DHT22;6268;48.188;17.134;2023-07-31T15:26:40;29.10;51.90
12408;DHT22;6268;48.188;17.134;2023-07-31T15:29:09;29.10;53.90
12408;DHT22;6268;48.188;17.134;2023-07-31T15:31:42;29.10;55.20
12408;DHT22;6268;48.188;17.134;2023-07-31T15:34:12;29.20;54.00
12408;DHT22;6268;48.188;17.134;2023-07-31T15:36:41;29.30;53.10
12408;DHT22;6268;48.188;17.134;2023-07-31T15:39:12;29.20;53.00
12408;DHT22;6268;48.188;17.134;2023-07-31T15:41:41;29.20;52.30
12408;DHT22;6268;48.188;17.134;2023-07-31T15:44:10;29.40;51.10
12408;DHT22;6268;48.188;17.134;2023-07-31T15:46:39;29.30;51.60
12408;DHT22;6268;48.188;17.134;2023-07-31T15:49:09;29.20;52.00